Time;durP1;ratioP1;P1;durP2;ratioP2;P2;SDS_P1;SDS_P2;PMS_P1;PMS_P2;Temp;Humidity;BMP_temperature;BMP_pressure;BME280_temperature;BME280_humidity;BME280_pressure;Samples;Min_cycle;Max_cycle;Signal;HPM_P1;HPM_P2
2022/10/11 00:01:05;;;;;;;12.95;1.40;;;6.00;99.90;;;;;;7341555;32;20282;-61
2022/10/11 00:05:08;;;;;;;8.93;1.27;;;5.90;99.90;;;;;;7337206;32;20867;-60
2022/10/11 00:09:10;;;;;;;7.40;1.25;;;5.90;99.90;;;;;;7345730;32;20488;-61
2022/10/11 00:13:12;;;;;;;8.98;2.75;;;5.90;99.90;;;;;;7341104;32;20100;-60
2022/10/11 00:17:13;;;;;;;5.50;1.40;;;5.90;99.90;;;;;;7337111;32;20095;-61
2022/10/11 00:21:16;;;;;;;3.65;1.05;;;5.80;99.90;;;;;;7339590;32;20205;-62
2022/10/11 00:25:18;;;;;;;6.10;1.08;;;5.80;99.90;;;;;;7338020;32;20141;-60
2022/10/11 00:29:19;;;;;;;7.12;1.67;;;5.80;99.90;;;;;;7340448;32;20127;-60
2022/10/11 00:33:21;;;;;;;5.45;1.25;;;5.70;99.90;;;;;;7339082;32;20103;-60
2022/10/11 00:37:23;;;;;;;5.45;1.02;;;5.70;99.90;;;;;;7343893;32;20116;-60
2022/10/11 00:41:24;;;;;;;4.05;1.00;;;5.60;99.90;;;;;;7342296;32;20197;-59
2022/10/11 00:45:26;;;;;;;6.93;1.70;;;5.50;99.90;;;;;;7339289;32;20103;-60
2022/10/11 00:49:33;;;;;;;9.15;0.90;;;5.50;99.90;;;;;;7339441;32;20213;-61
2022/10/11 00:53:35;;;;;;;;;;;5.60;99.90;;;;;;7337125;32;20179;-62
2022/10/11 00:57:40;;;;;;;5.53;1.00;;;5.50;99.90;;;;;;7342582;32;20029;-61
2022/10/11 01:01:42;;;;;;;7.32;1.05;;;5.40;99.90;;;;;;7345397;32;20153;-60
2022/10/11 01:05:45;;;;;;;5.78;1.30;;;5.40;99.90;;;;;;7342959;32;20108;-60
2022/10/11 01:09:46;;;;;;;7.20;1.33;;;5.40;99.90;;;;;;7340153;32;20103;-60
2022/10/11 01:13:57;;;;;;;6.53;1.40;;;5.30;99.90;;;;;;7348856;32;20751;-60
2022/10/11 01:18:34;;;;;;;7.35;1.85;;;5.40;99.90;;;;;;7338135;32;20100;-60
2022/10/11 01:22:55;;;;;;;4.65;1.10;;;5.30;99.90;;;;;;7335317;32;20099;-61
2022/10/11 01:27:27;;;;;;;6.28;1.30;;;5.20;99.90;;;;;;7339657;32;20574;-60
2022/10/11 01:31:39;;;;;;;8.25;1.60;;;5.20;99.90;;;;;;7336434;32;20118;-59
2022/10/11 01:35:47;;;;;;;4.75;1.40;;;5.10;99.90;;;;;;7347964;32;20133;-61
2022/10/11 01:40:20;;;;;;;9.80;1.50;;;5.10;99.90;;;;;;7352187;32;20130;-61
2022/10/11 01:44:23;;;;;;;6.07;1.65;;;5.10;99.90;;;;;;7348036;32;20099;-60
2022/10/11 01:48:25;;;;;;;6.32;1.37;;;5.10;99.90;;;;;;7348616;32;20199;-60
2022/10/11 01:52:32;;;;;;;5.60;1.25;;;5.10;99.90;;;;;;7356606;32;20464;-60
2022/10/11 01:56:49;;;;;;;;;;;5.00;99.90;;;;;;7340553;32;20141;-60
2022/10/11 02:01:11;;;;;;;7.15;1.70;;;5.00;99.90;;;;;;7350752;32;20007;-62
2022/10/11 02:05:16;;;;;;;9.15;1.42;;;5.00;99.90;;;;;;7346401;32;20106;-60
2022/10/11 02:09:35;;;;;;;7.32;1.98;;;4.90;99.90;;;;;;7339648;32;20104;-60
2022/10/11 02:13:39;;;;;;;5.47;1.98;;;4.80;99.90;;;;;;7339392;32;20100;-61
2022/10/11 02:17:48;;;;;;;7.07;2.50;;;4.80;99.90;;;;;;7339763;32;20114;-61
2022/10/11 02:21:55;;;;;;;7.43;2.30;;;4.80;99.90;;;;;;7346694;32;20598;-61
2022/10/11 02:25:58;;;;;;;9.43;2.15;;;4.90;99.90;;;;;;7343110;32;20103;-60
2022/10/11 02:30:01;;;;;;;13.73;3.20;;;4.90;99.90;;;;;;7345120;32;20138;-62
2022/10/11 02:34:23;;;;;;;15.75;4.18;;;4.90;99.90;;;;;;7344958;32;20103;-61
2022/10/11 02:38:32;;;;;;;12.85;3.92;;;4.80;99.90;;;;;;7338136;32;20553;-61
2022/10/11 02:43:00;;;;;;;10.60;4.10;;;4.80;99.90;;;;;;7337636;32;20091;-62
2022/10/11 02:47:03;;;;;;;8.00;3.70;;;4.80;99.90;;;;;;7324367;32;20108;-61
2022/10/11 02:51:05;;;;;;;15.90;4.65;;;4.80;99.90;;;;;;7334209;32;20133;-61
2022/10/11 02:55:07;;;;;;;10.27;4.90;;;4.80;99.90;;;;;;7346172;32;20259;-61
2022/10/11 02:59:09;;;;;;;10.88;4.32;;;4.90;99.90;;;;;;7341801;32;20138;-60
2022/10/11 03:03:10;;;;;;;9.68;4.90;;;4.90;99.90;;;;;;7343673;32;20099;-61
2022/10/11 03:07:13;;;;;;;6.60;4.00;;;4.90;99.90;;;;;;7340035;32;20623;-60
2022/10/11 03:11:15;;;;;;;10.68;4.53;;;4.90;99.90;;;;;;7346713;32;20946;-60
2022/10/11 03:15:16;;;;;;;14.43;5.47;;;4.90;99.90;;;;;;7344482;32;20202;-60
2022/10/11 03:19:18;;;;;;;11.77;5.22;;;4.90;99.90;;;;;;7349740;32;20100;-60
2022/10/11 03:23:20;;;;;;;13.93;5.43;;;4.90;99.90;;;;;;7341538;32;20108;-61
2022/10/11 03:27:21;;;;;;;14.70;6.18;;;4.80;99.90;;;;;;7343588;32;20103;-61
2022/10/11 03:31:23;;;;;;;14.87;6.25;;;4.80;99.90;;;;;;7338564;32;20641;-62
2022/10/11 03:35:25;;;;;;;11.23;4.90;;;4.80;99.90;;;;;;7342267;32;20198;-60
2022/10/11 03:39:27;;;;;;;11.65;5.40;;;4.70;99.90;;;;;;7339279;32;20121;-60
2022/10/11 03:43:28;;;;;;;12.63;6.43;;;4.70;99.90;;;;;;7344567;32;20213;-60
2022/10/11 03:47:31;;;;;;;10.98;5.18;;;4.70;99.90;;;;;;7343805;32;20139;-60
2022/10/11 03:51:32;;;;;;;8.93;5.62;;;4.70;99.90;;;;;;7343018;32;21049;-60
2022/10/11 03:55:36;;;;;;;11.65;6.35;;;4.80;99.90;;;;;;7343398;32;20107;-61
2022/10/11 03:59:38;;;;;;;11.02;5.95;;;4.80;99.90;;;;;;7344749;32;20107;-61
2022/10/11 04:03:39;;;;;;;10.23;5.47;;;4.80;99.90;;;;;;7341232;32;20119;-60
2022/10/11 04:07:41;;;;;;;11.63;5.65;;;4.80;99.90;;;;;;7342920;32;20103;-60
2022/10/11 04:11:43;;;;;;;12.77;6.60;;;4.80;99.90;;;;;;7341857;32;20130;-60
2022/10/11 04:15:45;;;;;;;10.05;4.82;;;4.80;99.90;;;;;;7345418;32;20137;-60
2022/10/11 04:19:47;;;;;;;10.25;4.43;;;4.60;99.90;;;;;;7342183;32;20130;-61
2022/10/11 04:23:49;;;;;;;10.85;4.87;;;4.50;99.90;;;;;;7341417;32;20530;-61
2022/10/11 04:27:51;;;;;;;8.30;4.93;;;4.50;99.90;;;;;;7340140;32;20919;-61
2022/10/11 04:31:52;;;;;;;14.20;4.75;;;4.40;99.90;;;;;;7343521;32;20137;-60
2022/10/11 04:35:55;;;;;;;10.70;4.70;;;4.50;99.90;;;;;;7339685;32;20248;-60
2022/10/11 04:39:57;;;;;;;9.43;4.93;;;4.40;99.90;;;;;;7340893;32;20527;-61
2022/10/11 04:44:00;;;;;;;9.00;4.37;;;4.30;99.90;;;;;;7340317;32;20135;-61
2022/10/11 04:48:01;;;;;;;16.35;4.35;;;4.30;99.90;;;;;;7335325;32;20115;-60
2022/10/11 04:52:03;;;;;;;7.45;4.57;;;4.30;99.90;;;;;;7337383;32;20153;-60
2022/10/11 04:56:09;;;;;;;8.13;4.75;;;4.30;99.90;;;;;;7347694;32;20112;-60
2022/10/11 05:00:11;;;;;;;7.80;4.27;;;4.30;99.90;;;;;;7339351;32;20103;-61
2022/10/11 05:04:13;;;;;;;6.62;3.92;;;4.30;99.90;;;;;;7343751;32;20138;-60
2022/10/11 05:08:15;;;;;;;6.65;4.32;;;4.20;99.90;;;;;;7348535;32;20228;-60
2022/10/11 05:12:17;;;;;;;6.53;4.25;;;4.10;99.90;;;;;;7337934;32;20475;-60
2022/10/11 05:16:19;;;;;;;8.38;4.97;;;4.10;99.90;;;;;;7348263;32;20115;-60
2022/10/11 05:20:20;;;;;;;7.10;4.72;;;4.10;99.90;;;;;;7343666;32;20111;-62
2022/10/11 05:24:22;;;;;;;9.43;5.12;;;4.10;99.90;;;;;;7335913;32;20108;-59
2022/10/11 05:28:25;;;;;;;11.85;6.30;;;4.10;99.90;;;;;;7347666;32;20107;-60
2022/10/11 05:32:27;;;;;;;9.88;6.70;;;4.10;99.90;;;;;;7339688;32;20129;-60
2022/10/11 05:36:28;;;;;;;11.25;6.30;;;4.10;99.90;;;;;;7337972;32;20134;-60
2022/10/11 05:40:30;;;;;;;8.30;5.62;;;4.10;99.90;;;;;;7341277;32;20245;-60
2022/10/11 05:44:32;;;;;;;14.10;6.65;;;4.10;99.90;;;;;;7340639;32;20134;-60
2022/10/11 05:48:34;;;;;;;7.55;5.57;;;4.10;99.90;;;;;;7340246;32;20225;-60
2022/10/11 05:52:36;;;;;;;8.13;5.78;;;4.10;99.90;;;;;;7343328;32;20254;-63
2022/10/11 05:56:37;;;;;;;11.07;6.57;;;4.20;99.90;;;;;;7334871;32;20111;-63
2022/10/11 06:00:40;;;;;;;10.00;6.95;;;4.20;99.90;;;;;;7336207;32;20182;-65
2022/10/11 06:04:41;;;;;;;12.60;6.35;;;4.30;99.90;;;;;;7343832;32;20141;-64
2022/10/11 06:08:44;;;;;;;12.15;7.40;;;4.30;99.90;;;;;;7326762;32;20309;-63
2022/10/11 06:12:45;;;;;;;11.52;6.05;;;4.20;99.90;;;;;;7342887;32;20653;-63
2022/10/11 06:16:47;;;;;;;21.98;13.15;;;4.20;99.90;;;;;;7337727;32;20182;-63
2022/10/11 06:20:49;;;;;;;13.30;8.75;;;4.30;99.90;;;;;;7342816;32;20103;-65
2022/10/11 06:24:51;;;;;;;13.15;6.50;;;4.30;99.90;;;;;;7344432;32;20107;-64
2022/10/11 06:28:52;;;;;;;11.43;6.20;;;4.30;99.90;;;;;;7345056;32;20534;-63
2022/10/11 06:32:54;;;;;;;10.20;7.03;;;4.40;99.90;;;;;;7347125;32;20516;-63
2022/10/11 06:36:56;;;;;;;17.50;8.10;;;4.40;99.90;;;;;;7345273;32;20206;-63
2022/10/11 06:41:09;;;;;;;13.35;7.87;;;4.50;99.90;;;;;;7346567;32;20138;-64
2022/10/11 06:45:10;;;;;;;49.50;30.58;;;4.60;99.90;;;;;;7348481;32;20811;-65
2022/10/11 06:49:12;;;;;;;15.20;9.77;;;4.70;99.90;;;;;;7345548;32;20123;-66
2022/10/11 06:53:14;;;;;;;15.45;9.68;;;4.80;99.90;;;;;;7349455;32;20201;-64
2022/10/11 06:57:15;;;;;;;15.70;8.75;;;4.90;99.90;;;;;;7336326;32;20778;-62
2022/10/11 07:01:20;;;;;;;14.45;7.68;;;5.00;99.90;;;;;;7345508;32;20111;-63
2022/10/11 07:05:21;;;;;;;13.70;8.07;;;5.10;99.90;;;;;;7345355;32;20531;-64
2022/10/11 07:09:23;;;;;;;16.83;9.75;;;5.20;99.90;;;;;;7341651;32;20530;-62
2022/10/11 07:13:25;;;;;;;17.00;10.30;;;5.20;99.90;;;;;;7345137;32;20111;-62
2022/10/11 07:17:27;;;;;;;17.02;10.27;;;5.40;99.90;;;;;;7343309;32;20123;-63
2022/10/11 07:21:30;;;;;;;18.37;10.45;;;5.60;99.90;;;;;;7337675;32;20999;-62
2022/10/11 07:25:32;;;;;;;18.12;11.27;;;5.70;99.90;;;;;;7347956;32;20703;-64
2022/10/11 07:29:34;;;;;;;16.58;10.93;;;5.80;99.90;;;;;;7344971;32;20673;-63
2022/10/11 07:33:35;;;;;;;18.23;12.95;;;6.00;99.90;;;;;;7339747;32;21089;-63
2022/10/11 07:37:37;;;;;;;23.02;13.65;;;6.20;99.90;;;;;;7344680;32;20550;-63
2022/10/11 07:41:39;;;;;;;21.45;15.10;;;6.30;99.90;;;;;;7348009;32;20153;-64
2022/10/11 07:45:49;;;;;;;;;;;6.50;99.90;;;;;;7342064;32;20257;-63
2022/10/11 07:49:50;;;;;;;20.70;15.02;;;6.70;99.90;;;;;;7346469;32;20013;-63
2022/10/11 07:53:54;;;;;;;24.67;15.77;;;6.90;99.90;;;;;;7338937;32;20386;-63
2022/10/11 07:57:56;;;;;;;22.08;15.07;;;7.00;99.90;;;;;;7344385;32;20273;-63
2022/10/11 08:01:58;;;;;;;18.42;14.05;;;7.20;99.90;;;;;;7343119;32;20130;-59
2022/10/11 08:06:06;;;;;;;20.90;15.00;;;7.30;99.90;;;;;;7340250;32;20214;-63
2022/10/11 08:10:09;;;;;;;27.92;16.65;;;7.50;99.90;;;;;;7339983;32;20120;-63
2022/10/11 08:14:11;;;;;;;31.45;20.42;;;7.70;99.90;;;;;;7346134;32;20283;-65
2022/10/11 08:18:12;;;;;;;29.85;20.45;;;7.90;99.90;;;;;;7342709;32;20178;-62
2022/10/11 08:22:14;;;;;;;37.58;21.67;;;8.10;99.90;;;;;;7343040;32;20199;-63
2022/10/11 08:26:16;;;;;;;34.75;20.65;;;8.30;99.90;;;;;;7344131;32;20194;-63
2022/10/11 08:30:18;;;;;;;32.60;21.23;;;8.40;99.90;;;;;;7341130;32;20132;-64
2022/10/11 08:34:19;;;;;;;36.30;19.92;;;8.50;99.90;;;;;;7343892;32;20706;-64
2022/10/11 08:38:22;;;;;;;33.05;19.65;;;8.60;99.90;;;;;;7344474;32;20135;-63
2022/10/11 08:42:23;;;;;;;30.17;19.55;;;8.80;99.90;;;;;;7337925;32;20217;-63
2022/10/11 08:46:30;;;;;;;38.47;19.55;;;8.90;99.90;;;;;;7340526;32;20134;-62
2022/10/11 08:50:33;;;;;;;31.15;18.05;;;9.10;99.90;;;;;;7342232;32;20272;-63
2022/10/11 08:54:44;;;;;;;25.83;15.73;;;9.40;99.90;;;;;;7336745;32;20142;-64
2022/10/11 08:59:02;;;;;;;38.22;24.05;;;9.60;99.90;;;;;;7343409;32;20254;-63
2022/10/11 09:03:26;;;;;;;32.08;16.50;;;9.80;99.90;;;;;;7343255;32;20138;-57
2022/10/11 09:07:33;;;;;;;26.15;15.07;;;10.00;99.90;;;;;;7340384;32;20181;-61
2022/10/11 09:12:11;;;;;;;25.80;14.87;;;10.30;99.90;;;;;;7342643;32;20247;-63
2022/10/11 09:16:16;;;;;;;29.15;17.23;;;10.60;99.90;;;;;;7339562;32;20952;-61
2022/10/11 09:20:42;;;;;;;29.17;17.05;;;10.70;99.90;;;;;;7338862;32;20106;-61
2022/10/11 09:24:58;;;;;;;29.92;18.17;;;10.70;99.90;;;;;;7342746;32;20218;-61
2022/10/11 09:29:23;;;;;;;24.90;15.90;;;10.70;99.90;;;;;;7343009;32;20133;-63
2022/10/11 09:33:35;;;;;;;25.48;15.25;;;11.00;99.90;;;;;;7330931;32;20111;-61
2022/10/11 09:37:49;;;;;;;24.35;14.02;;;12.20;99.90;;;;;;7342925;32;20232;-63
2022/10/11 09:42:08;;;;;;;23.85;14.90;;;13.20;99.90;;;;;;7347632;32;20440;-61
2022/10/11 09:46:19;;;;;;;27.75;15.68;;;13.50;99.90;;;;;;7343689;32;20121;-64
2022/10/11 09:50:28;;;;;;;26.95;15.48;;;13.80;99.90;;;;;;7342173;32;20197;-61
2022/10/11 09:54:42;;;;;;;24.92;16.67;;;13.90;99.90;;;;;;7345222;32;20118;-63
2022/10/11 09:58:44;;;;;;;31.60;19.23;;;13.90;99.90;;;;;;7342858;32;20170;-63
2022/10/11 10:02:56;;;;;;;34.78;22.20;;;13.90;99.90;;;;;;7339682;32;20231;-61
2022/10/11 10:07:11;;;;;;;38.60;24.33;;;13.70;99.90;;;;;;7349053;32;20117;-65
2022/10/11 10:11:13;;;;;;;34.67;23.40;;;13.10;99.90;;;;;;7345897;32;20844;-63
2022/10/11 10:15:18;;;;;;;40.85;24.95;;;12.70;99.90;;;;;;7343405;32;20103;-62
2022/10/11 10:19:20;;;;;;;42.97;25.90;;;12.50;99.90;;;;;;7341714;32;20142;-63
2022/10/11 10:23:26;;;;;;;38.33;24.08;;;12.10;99.90;;;;;;7344254;32;20122;-63
2022/10/11 10:27:29;;;;;;;45.60;24.95;;;11.80;99.90;;;;;;7347187;32;20103;-62
2022/10/11 10:31:36;;;;;;;38.30;24.10;;;11.70;99.90;;;;;;7343007;32;20099;-61
2022/10/11 10:36:17;;;;;;;39.38;25.90;;;11.70;99.90;;;;;;7348823;32;20889;-62
2022/10/11 10:40:30;;;;;;;35.45;24.37;;;11.50;99.90;;;;;;7343745;32;20216;-62
2022/10/11 10:44:31;;;;;;;37.63;23.95;;;11.50;99.90;;;;;;7344840;32;20682;-62
2022/10/11 10:48:47;;;;;;;37.72;24.25;;;11.50;99.90;;;;;;7349969;32;20199;-61
2022/10/11 10:53:20;;;;;;;39.50;23.77;;;11.40;99.90;;;;;;7345346;32;20119;-62
2022/10/11 10:57:33;;;;;;;40.47;23.48;;;11.30;99.90;;;;;;7345381;32;20099;-62
2022/10/11 11:01:57;;;;;;;31.23;21.17;;;11.40;99.90;;;;;;7349242;32;20118;-63
2022/10/11 11:06:59;;;;;;;34.63;19.77;;;11.50;99.90;;;;;;7344238;32;20170;-63
2022/10/11 11:11:01;;;;;;;32.05;20.25;;;11.60;99.90;;;;;;7334603;32;20138;-63
2022/10/11 11:15:27;;;;;;;34.15;17.45;;;11.60;99.90;;;;;;7342786;32;20129;-63
2022/10/11 11:20:02;;;;;;;30.00;18.27;;;11.70;99.90;;;;;;7342197;32;20696;-63
2022/10/11 11:24:34;;;;;;;28.02;17.35;;;11.80;99.90;;;;;;7348520;32;20126;-62
2022/10/11 11:29:03;;;;;;;32.28;17.90;;;11.90;99.90;;;;;;7349508;32;20379;-63
2022/10/11 11:33:35;;;;;;;30.95;18.48;;;12.00;99.90;;;;;;7341539;32;20111;-63
2022/10/11 11:37:40;;;;;;;28.65;17.17;;;12.40;99.90;;;;;;7342912;32;20190;-64
2022/10/11 11:41:59;;;;;;;28.92;16.08;;;12.50;99.90;;;;;;7343446;32;20104;-63
2022/10/11 11:46:08;;;;;;;24.50;15.75;;;12.70;99.90;;;;;;7344405;32;20498;-63
2022/10/11 11:50:22;;;;;;;20.20;10.32;;;12.90;99.90;;;;;;7338390;32;20112;-63
2022/10/11 11:54:48;;;;;;;21.67;9.27;;;13.10;99.90;;;;;;7338791;32;20103;-62
2022/10/11 11:59:01;;;;;;;17.35;7.93;;;13.20;99.90;;;;;;7344157;32;20674;-63
2022/10/11 12:03:11;;;;;;;27.15;13.10;;;13.40;99.90;;;;;;7342991;32;20103;-63
2022/10/11 12:07:17;;;;;;;21.62;9.85;;;13.60;99.90;;;;;;7338642;32;20095;-62
2022/10/11 12:11:25;;;;;;;23.70;8.52;;;13.70;99.90;;;;;;7343065;32;20099;-62
2022/10/11 12:15:29;;;;;;;22.50;10.35;;;13.70;99.90;;;;;;7343180;32;20099;-62
2022/10/11 12:19:30;;;;;;;17.55;9.00;;;13.90;99.90;;;;;;7338646;32;20186;-63
2022/10/11 12:23:39;;;;;;;19.00;8.85;;;13.80;99.90;;;;;;7343899;32;20421;-62
2022/10/11 12:27:46;;;;;;;19.40;8.70;;;14.00;99.90;;;;;;7342841;32;20104;-63
2022/10/11 12:31:57;;;;;;;17.50;8.45;;;14.00;99.90;;;;;;7348516;32;20103;-63
2022/10/11 12:36:02;;;;;;;21.27;7.45;;;14.10;99.90;;;;;;7339538;32;20103;-60
2022/10/11 12:40:32;;;;;;;22.15;7.55;;;14.20;99.90;;;;;;7344674;32;20107;-62
2022/10/11 12:44:34;;;;;;;18.48;8.18;;;14.20;99.90;;;;;;7347020;32;20616;-62
2022/10/11 12:48:45;;;;;;;16.48;7.82;;;14.50;99.90;;;;;;7338194;32;20551;-63
2022/10/11 12:53:30;;;;;;;18.02;6.90;;;14.60;99.90;;;;;;7341307;32;20269;-61
2022/10/11 12:57:57;;;;;;;15.65;6.82;;;15.10;99.90;;;;;;7343298;32;20133;-63
2022/10/11 13:01:59;;;;;;;20.58;6.57;;;15.10;99.90;;;;;;7336850;32;20119;-61
2022/10/11 13:06:13;;;;;;;16.90;7.15;;;15.20;99.90;;;;;;7339185;32;20130;-61
2022/10/11 13:10:23;;;;;;;19.08;6.87;;;15.20;99.90;;;;;;7341642;32;20586;-63
2022/10/11 13:14:26;;;;;;;17.58;7.12;;;14.80;99.90;;;;;;7343197;32;20285;-62
2022/10/11 13:18:28;;;;;;;12.13;5.60;;;14.80;99.90;;;;;;7341876;32;20133;-63
2022/10/11 13:22:34;;;;;;;15.30;5.93;;;14.70;99.90;;;;;;7342020;32;20107;-65
2022/10/11 13:26:36;;;;;;;16.85;6.62;;;14.40;99.90;;;;;;7340559;32;20470;-64
2022/10/11 13:30:43;;;;;;;19.05;7.45;;;14.20;99.90;;;;;;7339727;32;20161;-62
2022/10/11 13:34:47;;;;;;;16.80;6.33;;;14.10;99.90;;;;;;7341871;32;20103;-63
2022/10/11 13:38:55;;;;;;;15.07;5.82;;;14.50;99.90;;;;;;7344758;32;20205;-63
2022/10/11 13:42:58;;;;;;;18.98;5.72;;;15.00;99.90;;;;;;7345866;32;20194;-63
2022/10/11 13:47:00;;;;;;;10.48;4.57;;;15.40;99.90;;;;;;7344676;32;20108;-64
2022/10/11 13:51:04;;;;;;;14.80;6.68;;;15.20;99.90;;;;;;7348316;32;20510;-63
2022/10/11 13:55:13;;;;;;;18.90;5.80;;;15.20;99.90;;;;;;7348353;32;20095;-63
2022/10/11 13:59:20;;;;;;;21.02;9.05;;;15.00;99.90;;;;;;7349271;32;20187;-63
2022/10/11 14:03:24;;;;;;;17.10;5.57;;;14.90;99.90;;;;;;7346486;32;20126;-63
2022/10/11 14:07:27;;;;;;;15.73;6.20;;;14.70;99.90;;;;;;7349394;32;20178;-62
2022/10/11 14:11:38;;;;;;;13.75;5.75;;;14.50;99.90;;;;;;7340391;32;20125;-63
2022/10/11 14:15:39;;;;;;;14.70;4.97;;;14.30;99.90;;;;;;7345115;32;20149;-64
2022/10/11 14:19:42;;;;;;;15.55;5.30;;;14.30;99.90;;;;;;7341477;32;20118;-59
2022/10/11 14:23:53;;;;;;;19.77;5.32;;;14.20;99.90;;;;;;7350293;32;20898;-62
2022/10/11 14:27:56;;;;;;;16.52;4.78;;;14.00;99.90;;;;;;7346551;32;20127;-65
2022/10/11 14:32:09;;;;;;;15.07;4.75;;;14.20;99.90;;;;;;7345854;32;20197;-63
2022/10/11 14:36:11;;;;;;;16.00;4.28;;;14.10;99.90;;;;;;7347944;32;20507;-63
2022/10/11 14:40:17;;;;;;;12.82;3.60;;;14.20;99.90;;;;;;7346118;32;20182;-63
2022/10/11 14:44:20;;;;;;;15.32;3.37;;;13.90;99.90;;;;;;7351765;32;20108;-64
2022/10/11 14:48:22;;;;;;;13.70;2.78;;;13.90;99.90;;;;;;7344973;32;20183;-64
2022/10/11 14:52:45;;;;;;;8.07;2.30;;;13.80;99.90;;;;;;7343027;32;20095;-63
2022/10/11 14:56:47;;;;;;;8.98;2.72;;;13.80;99.90;;;;;;7342705;32;20410;-63
2022/10/11 15:00:49;;;;;;;10.70;2.47;;;14.00;99.90;;;;;;7342320;32;20095;-64
2022/10/11 15:04:51;;;;;;;10.07;2.25;;;13.80;99.90;;;;;;7343364;32;20112;-62
2022/10/11 15:08:53;;;;;;;13.15;2.58;;;13.90;99.90;;;;;;7348723;32;20100;-63
2022/10/11 15:12:55;;;;;;;12.90;2.33;;;13.90;99.90;;;;;;7340638;32;20208;-62
2022/10/11 15:16:57;;;;;;;10.90;2.22;;;13.80;99.90;;;;;;7341857;32;20774;-63
2022/10/11 15:20:59;;;;;;;7.12;1.73;;;13.90;99.90;;;;;;7342729;32;20171;-62
2022/10/11 15:25:01;;;;;;;9.75;2.37;;;13.90;99.90;;;;;;7346821;32;20116;-64
2022/10/11 15:29:02;;;;;;;8.45;2.15;;;13.80;99.90;;;;;;7346949;32;20122;-64
2022/10/11 15:33:04;;;;;;;11.60;2.33;;;13.70;99.90;;;;;;7346132;32;20103;-63
2022/10/11 15:37:06;;;;;;;9.45;2.40;;;13.60;99.90;;;;;;7348385;32;20233;-62
2022/10/11 15:41:14;;;;;;;6.50;2.05;;;13.30;99.90;;;;;;7348174;32;20195;-63
2022/10/11 15:45:17;;;;;;;10.88;2.80;;;13.10;99.90;;;;;;7344419;32;20190;-64
2022/10/11 15:49:19;;;;;;;11.02;2.35;;;12.90;99.90;;;;;;7345964;32;20213;-63
2022/10/11 15:53:27;;;;;;;10.68;2.55;;;12.70;99.90;;;;;;7347692;32;20189;-64
2022/10/11 15:57:29;;;;;;;10.80;2.45;;;12.40;99.90;;;;;;7344635;32;20169;-63
2022/10/11 16:01:30;;;;;;;10.25;2.92;;;12.20;99.90;;;;;;7353545;32;20111;-64
2022/10/11 16:05:32;;;;;;;5.18;2.00;;;12.00;99.90;;;;;;7345276;32;20095;-63
2022/10/11 16:09:34;;;;;;;8.07;2.30;;;11.80;99.90;;;;;;7349246;32;20186;-64
2022/10/11 16:13:36;;;;;;;12.27;2.33;;;11.50;99.90;;;;;;7349065;32;20107;-63
2022/10/11 16:17:37;;;;;;;7.05;2.35;;;11.30;99.90;;;;;;7345819;32;20224;-64
2022/10/11 16:21:39;;;;;;;6.70;2.22;;;11.10;99.90;;;;;;7344546;32;20126;-63
2022/10/11 16:25:41;;;;;;;14.15;2.33;;;10.90;99.90;;;;;;7330093;32;20563;-63
2022/10/11 16:29:43;;;;;;;10.52;2.35;;;10.70;99.90;;;;;;7337156;32;20229;-63
2022/10/11 16:33:44;;;;;;;10.02;2.83;;;10.60;99.90;;;;;;7334794;32;20441;-63
2022/10/11 16:37:47;;;;;;;9.60;2.35;;;10.30;99.90;;;;;;7340191;32;20234;-63
2022/10/11 16:41:48;;;;;;;45.72;19.77;;;10.10;99.90;;;;;;7332725;32;20190;-63
2022/10/11 16:45:56;;;;;;;63.80;30.58;;;10.00;99.90;;;;;;7343030;32;20248;-64
2022/10/11 16:49:58;;;;;;;;;;;9.80;99.90;;;;;;7336704;32;20190;-63
2022/10/11 16:54:00;;;;;;;11.00;4.30;;;9.70;99.90;;;;;;7354401;32;20363;-63
2022/10/11 16:58:01;;;;;;;13.95;3.35;;;9.50;99.90;;;;;;7332396;32;20228;-63
2022/10/11 17:02:04;;;;;;;7.90;3.40;;;9.30;99.90;;;;;;7344664;32;20146;-60
2022/10/11 17:06:06;;;;;;;11.27;3.35;;;9.10;99.90;;;;;;7346559;32;20127;-61
2022/10/11 17:10:09;;;;;;;10.23;2.83;;;9.00;99.90;;;;;;7338985;32;20176;-60
2022/10/11 17:14:12;;;;;;;10.60;2.95;;;8.90;99.90;;;;;;7345644;32;20121;-60
2022/10/11 17:18:15;;;;;;;9.25;2.92;;;8.80;99.90;;;;;;7336533;32;20378;-60
2022/10/11 17:22:18;;;;;;;9.90;3.00;;;8.70;99.90;;;;;;7346467;32;20108;-60
2022/10/11 17:26:25;;;;;;;11.68;3.08;;;8.50;99.90;;;;;;7340719;32;20121;-62
2022/10/11 17:30:27;;;;;;;10.80;2.67;;;8.40;99.90;;;;;;7340750;32;20206;-60
2022/10/11 17:34:28;;;;;;;8.13;2.87;;;8.30;99.90;;;;;;7343696;32;20182;-60
2022/10/11 17:38:30;;;;;;;5.78;2.05;;;8.10;99.90;;;;;;7339824;32;20244;-61
2022/10/11 17:42:32;;;;;;;13.30;2.65;;;8.00;99.90;;;;;;7339476;32;20485;-60
2022/10/11 17:46:34;;;;;;;8.90;2.53;;;7.90;99.90;;;;;;7334821;32;20190;-61
2022/10/11 17:50:40;;;;;;;14.80;2.30;;;7.90;99.90;;;;;;7347624;32;20125;-60
2022/10/11 17:54:41;;;;;;;11.00;2.35;;;7.70;99.90;;;;;;7344925;32;20133;-61
2022/10/11 17:58:44;;;;;;;6.62;2.58;;;7.70;99.90;;;;;;7345169;32;20104;-60
2022/10/11 18:02:46;;;;;;;18.23;3.03;;;7.60;99.90;;;;;;7338870;32;20226;-61
2022/10/11 18:06:48;;;;;;;13.60;3.75;;;7.50;99.90;;;;;;7346929;32;20178;-60
2022/10/11 18:10:50;;;;;;;12.45;4.20;;;7.40;99.90;;;;;;7340589;32;20103;-62
2022/10/11 18:14:52;;;;;;;14.35;3.62;;;7.30;99.90;;;;;;7336783;32;20125;-60
2022/10/11 18:18:56;;;;;;;8.50;3.58;;;7.20;99.90;;;;;;7342134;32;20161;-61
2022/10/11 18:22:58;;;;;;;13.10;3.83;;;7.10;99.90;;;;;;7342790;32;20095;-61
2022/10/11 18:27:00;;;;;;;12.88;3.67;;;7.10;99.90;;;;;;7346697;32;20425;-61
2022/10/11 18:31:15;;;;;;;15.02;4.18;;;6.90;99.90;;;;;;7352823;32;20467;-61
2022/10/11 18:35:18;;;;;;;6.85;2.87;;;6.90;99.90;;;;;;7345626;32;20209;-63
2022/10/11 18:39:20;;;;;;;10.18;3.08;;;6.90;99.90;;;;;;7346292;32;20130;-65
2022/10/11 18:43:22;;;;;;;11.85;2.92;;;6.90;99.90;;;;;;7351644;32;20301;-63
2022/10/11 18:47:24;;;;;;;10.95;3.28;;;6.80;99.90;;;;;;7344359;32;20174;-64
2022/10/11 18:51:33;;;;;;;9.00;2.70;;;6.70;99.90;;;;;;7343007;32;20103;-60
2022/10/11 18:55:34;;;;;;;7.85;2.60;;;6.70;99.90;;;;;;7343044;32;20099;-62
2022/10/11 18:59:36;;;;;;;12.20;3.10;;;6.60;99.90;;;;;;7339286;32;20099;-60
2022/10/11 19:03:38;;;;;;;7.85;2.75;;;6.60;99.90;;;;;;7338845;32;20217;-62
2022/10/11 19:07:41;;;;;;;12.25;2.78;;;6.60;99.90;;;;;;7343997;32;20194;-64
2022/10/11 19:11:43;;;;;;;10.40;2.70;;;6.50;99.90;;;;;;7342125;32;20132;-62
2022/10/11 19:15:45;;;;;;;8.50;2.45;;;6.50;99.90;;;;;;7340144;32;20208;-63
2022/10/11 19:19:47;;;;;;;11.27;2.92;;;6.50;99.90;;;;;;7348480;32;20107;-63
2022/10/11 19:23:50;;;;;;;10.48;3.37;;;6.40;99.90;;;;;;7345935;32;20179;-62
2022/10/11 19:27:51;;;;;;;7.97;3.20;;;6.40;99.90;;;;;;7342022;32;20107;-65
2022/10/11 19:31:58;;;;;;;8.98;3.17;;;6.40;99.90;;;;;;7342471;32;20118;-64
2022/10/11 19:36:02;;;;;;;12.48;2.87;;;6.30;99.90;;;;;;7339322;32;20103;-66
2022/10/11 19:40:04;;;;;;;10.90;3.30;;;6.30;99.90;;;;;;7341950;32;20487;-63
2022/10/11 19:44:06;;;;;;;11.93;3.22;;;6.30;99.90;;;;;;7349826;32;20099;-63
2022/10/11 19:48:09;;;;;;;5.07;2.72;;;6.20;99.90;;;;;;7347316;32;20258;-63
2022/10/11 19:52:12;;;;;;;12.90;3.15;;;6.20;99.90;;;;;;7342844;32;20107;-64
2022/10/11 19:56:15;;;;;;;6.70;2.87;;;6.20;99.90;;;;;;7347579;32;20130;-62
2022/10/11 20:00:17;;;;;;;5.72;2.95;;;6.10;99.90;;;;;;7347940;32;20126;-62
2022/10/11 20:04:19;;;;;;;11.57;3.53;;;6.10;99.90;;;;;;7344301;32;20103;-62
2022/10/11 20:08:43;;;;;;;6.82;3.08;;;6.10;99.90;;;;;;7347539;32;20104;-64
2022/10/11 20:12:45;;;;;;;10.07;3.17;;;6.00;99.90;;;;;;7338178;32;20118;-64
2022/10/11 20:16:49;;;;;;;12.48;3.42;;;6.00;99.90;;;;;;7343565;32;20115;-61
2022/10/11 20:20:59;;;;;;;7.03;2.95;;;6.00;99.90;;;;;;7344839;32;20091;-64
2022/10/11 20:25:00;;;;;;;8.52;2.72;;;5.90;99.90;;;;;;7339252;32;20103;-65
2022/10/11 20:29:02;;;;;;;7.82;3.10;;;5.90;99.90;;;;;;7345236;32;20209;-63
2022/10/11 20:33:04;;;;;;;8.48;3.42;;;5.90;99.90;;;;;;7343924;32;20103;-62
2022/10/11 20:37:06;;;;;;;11.40;2.70;;;5.80;99.90;;;;;;7347570;32;20245;-61
2022/10/11 20:41:10;;;;;;;11.12;3.45;;;5.80;99.90;;;;;;7340370;32;20653;-63
2022/10/11 20:45:12;;;;;;;7.57;2.90;;;5.80;99.90;;;;;;7340392;32;20103;-64
2022/10/11 20:49:13;;;;;;;10.23;4.20;;;5.70;99.90;;;;;;7341279;32;20182;-62
2022/10/11 20:53:15;;;;;;;9.70;5.03;;;5.70;99.90;;;;;;7340691;32;20107;-62
2022/10/11 20:57:17;;;;;;;8.52;4.10;;;5.70;99.90;;;;;;7345859;32;20121;-62
2022/10/11 21:01:21;;;;;;;6.90;3.78;;;5.70;99.90;;;;;;7339000;32;20293;-62
2022/10/11 21:05:23;;;;;;;10.10;3.90;;;5.70;99.90;;;;;;7339321;32;20194;-63
2022/10/11 21:09:24;;;;;;;10.27;4.00;;;5.70;99.90;;;;;;7346761;32;20103;-62
2022/10/11 21:13:27;;;;;;;8.75;4.75;;;5.60;99.90;;;;;;7343063;32;20130;-64
2022/10/11 21:17:28;;;;;;;15.02;6.40;;;5.60;99.90;;;;;;7338121;32;20110;-63